Time;durP1;ratioP1;P1;durP2;ratioP2;P2;SDS_P1;SDS_P2;PMS_P1;PMS_P2;Temp;Humidity;BMP_temperature;BMP_pressure;BME280_temperature;BME280_humidity;BME280_pressure;Samples;Min_cycle;Max_cycle;Signal;HPM_P1;HPM_P2
2023/03/25 00:00:48;;;;;;;3.90;3.00;;;;;;;;;;4960976;28;20528;-73
2023/03/25 00:03:14;;;;;;;5.50;2.93;;;;;;;;;;4962848;28;20239;-76
2023/03/25 00:05:40;;;;;;;5.97;2.37;;;;;;;;;;4975752;28;20553;-74
2023/03/25 00:08:06;;;;;;;4.07;3.03;;;;;;;;;;4973408;28;20225;-73
2023/03/25 00:10:33;;;;;;;3.70;2.57;;;;;;;;;;4975898;28;20698;-76
2023/03/25 00:13:03;;;;;;;3.40;2.53;;;;;;;;;;4976291;28;20214;-74
2023/03/25 00:15:32;;;;;;;4.70;2.10;;;;;;;;;;4964630;28;20235;-73
2023/03/25 00:17:58;;;;;;;2.80;2.20;;;;;;;;;;4957650;28;20616;-73
2023/03/25 00:20:26;;;;;;;3.07;2.20;;;;;;;;;;4982385;28;20210;-75
2023/03/25 00:22:53;;;;;;;4.97;2.40;;;;;;;;;;4974399;28;20695;-72
2023/03/25 00:25:20;;;;;;;4.37;2.40;;;;;;;;;;4975797;28;20536;-73
2023/03/25 00:27:47;;;;;;;5.30;2.33;;;;;;;;;;4977710;28;20226;-73
2023/03/25 00:30:14;;;;;;;3.60;2.50;;;;;;;;;;4976950;28;20225;-74
2023/03/25 00:32:44;;;;;;;5.40;2.70;;;;;;;;;;4979201;28;20605;-73
2023/03/25 00:35:12;;;;;;;2.77;2.13;;;;;;;;;;4978683;28;20210;-74
2023/03/25 00:37:38;;;;;;;2.37;2.13;;;;;;;;;;4975422;28;20221;-73
2023/03/25 00:40:05;;;;;;;5.03;2.30;;;;;;;;;;4982998;23;20233;-78
2023/03/25 00:42:33;;;;;;;3.53;2.60;;;;;;;;;;4982689;28;20588;-78
2023/03/25 00:45:00;;;;;;;2.70;2.20;;;;;;;;;;4978151;28;21312;-78
2023/03/25 00:47:30;;;;;;;3.67;2.30;;;;;;;;;;4988427;28;20202;-78
2023/03/25 00:49:57;;;;;;;3.87;2.10;;;;;;;;;;4969908;28;20664;-78
2023/03/25 00:54:51;;;;;;;3.83;2.40;;;;;;;;;;5022836;28;20303;-78
2023/03/25 00:57:17;;;;;;;4.60;2.47;;;;;;;;;;5012945;28;20289;-78
2023/03/25 00:59:44;;;;;;;3.60;2.23;;;;;;;;;;5027771;28;20207;-78
2023/03/25 01:02:10;;;;;;;2.87;1.93;;;;;;;;;;5034469;28;20223;-78
2023/03/25 01:04:38;;;;;;;3.60;2.30;;;;;;;;;;5056215;28;20267;-78
2023/03/25 01:07:05;;;;;;;3.40;1.83;;;;;;;;;;5056380;28;22091;-78
2023/03/25 01:09:32;;;;;;;2.20;1.87;;;;;;;;;;5050191;28;20196;-78
2023/03/25 01:11:58;;;;;;;2.23;1.73;;;;;;;;;;5032518;28;20338;-78
2023/03/25 01:14:26;;;;;;;2.50;2.30;;;;;;;;;;5038449;28;20202;-78
2023/03/25 01:16:52;;;;;;;3.43;2.43;;;;;;;;;;5052120;28;20205;-78
2023/03/25 01:19:18;;;;;;;5.07;2.90;;;;;;;;;;5050463;28;20190;-78
2023/03/25 01:21:45;;;;;;;2.87;2.40;;;;;;;;;;5051068;28;20232;-78
2023/03/25 01:24:15;;;;;;;3.50;2.43;;;;;;;;;;5051301;28;20195;-78
2023/03/25 01:26:42;;;;;;;3.93;2.03;;;;;;;;;;5035552;28;20210;-78
2023/03/25 01:29:08;;;;;;;2.30;2.10;;;;;;;;;;5053659;28;20199;-78
2023/03/25 01:31:35;;;;;;;2.20;2.00;;;;;;;;;;5053565;28;20199;-78
2023/03/25 01:34:01;;;;;;;4.83;2.50;;;;;;;;;;5047857;28;20206;-78
2023/03/25 01:36:29;;;;;;;3.83;2.53;;;;;;;;;;5047247;28;20907;-78
2023/03/25 01:38:57;;;;;;;3.07;2.03;;;;;;;;;;5039134;28;20218;-78
2023/03/25 01:41:24;;;;;;;4.37;2.80;;;;;;;;;;5049704;28;20218;-78
2023/03/25 01:44:07;;;;;;;2.87;2.20;;;;;;;;;;5049129;28;20218;-78
2023/03/25 01:46:34;;;;;;;4.73;2.80;;;;;;;;;;5049842;28;20197;-78
2023/03/25 01:49:01;;;;;;;5.03;2.60;;;;;;;;;;5036219;28;21176;-78
2023/03/25 01:51:35;;;;;;;3.27;2.60;;;;;;;;;;5035872;28;20284;-78
2023/03/25 01:54:02;;;;;;;3.70;2.57;;;;;;;;;;5037102;28;20272;-79
2023/03/25 01:56:31;;;;;;;6.97;2.77;;;;;;;;;;5055370;28;20190;-78
2023/03/25 01:58:58;;;;;;;5.87;3.10;;;;;;;;;;5052344;28;20671;-78
2023/03/25 02:01:25;;;;;;;5.80;3.10;;;;;;;;;;5051977;28;20242;-78
2023/03/25 02:03:53;;;;;;;5.53;3.60;;;;;;;;;;5050688;28;20316;-78
2023/03/25 02:06:23;;;;;;;4.10;3.40;;;;;;;;;;5048114;28;20199;-78
2023/03/25 02:08:52;;;;;;;8.87;3.20;;;;;;;;;;5046693;28;20659;-78
2023/03/25 02:11:18;;;;;;;5.77;3.27;;;;;;;;;;5048201;28;20886;-78
2023/03/25 02:13:46;;;;;;;5.90;3.27;;;;;;;;;;5032188;28;20357;-78
2023/03/25 02:16:26;;;;;;;4.47;3.03;;;;;;;;;;5033300;28;20196;-78
2023/03/25 02:18:57;;;;;;;4.13;3.03;;;;;;;;;;5049812;28;20216;-78
2023/03/25 02:21:34;;;;;;;6.20;3.27;;;;;;;;;;5039957;28;20307;-78
2023/03/25 02:24:19;;;;;;;6.93;3.43;;;;;;;;;;5056033;28;20215;-78
2023/03/25 02:27:12;;;;;;;3.83;3.17;;;;;;;;;;5049303;28;20233;-78
2023/03/25 02:29:49;;;;;;;6.20;3.93;;;;;;;;;;5057561;28;20561;-78
2023/03/25 02:32:25;;;;;;;6.03;3.47;;;;;;;;;;5053344;28;20218;-78
2023/03/25 02:35:01;;;;;;;5.53;3.50;;;;;;;;;;5055251;28;20213;-78
2023/03/25 02:37:47;;;;;;;6.13;3.63;;;;;;;;;;5052506;28;20198;-78
2023/03/25 02:40:20;;;;;;;4.63;3.60;;;;;;;;;;5055628;28;20699;-78
2023/03/25 02:42:48;;;;;;;8.67;3.93;;;;;;;;;;5052150;28;20438;-78
2023/03/25 02:45:16;;;;;;;5.37;3.53;;;;;;;;;;5037208;28;20290;-79
2023/03/25 02:47:45;;;;;;;5.97;3.60;;;;;;;;;;5052009;28;20765;-78
2023/03/25 02:50:14;;;;;;;6.83;3.90;;;;;;;;;;5048424;28;20747;-78
2023/03/25 02:52:43;;;;;;;4.87;3.37;;;;;;;;;;5049750;28;20550;-78
2023/03/25 02:55:13;;;;;;;4.70;3.57;;;;;;;;;;5050178;28;20681;-78
2023/03/25 02:57:41;;;;;;;6.83;3.67;;;;;;;;;;5030655;28;20691;-78
2023/03/25 03:00:13;;;;;;;6.13;3.60;;;;;;;;;;5046000;28;20218;-78
2023/03/25 03:02:42;;;;;;;4.90;3.57;;;;;;;;;;5029193;28;20230;-78
2023/03/25 03:05:20;;;;;;;5.90;4.17;;;;;;;;;;5031217;28;20310;-78
2023/03/25 03:07:51;;;;;;;3.67;3.17;;;;;;;;;;5052227;28;20217;-78
2023/03/25 03:10:20;;;;;;;9.80;3.60;;;;;;;;;;5044597;28;20208;-78
2023/03/25 03:12:52;;;;;;;7.27;3.00;;;;;;;;;;5050084;28;20697;-78
2023/03/25 03:15:27;;;;;;;6.13;3.40;;;;;;;;;;5051826;28;20203;-78
2023/03/25 03:17:59;;;;;;;4.53;3.10;;;;;;;;;;5033796;28;20675;-77
2023/03/25 03:20:31;;;;;;;3.47;2.97;;;;;;;;;;5052980;28;20730;-78
2023/03/25 03:23:04;;;;;;;8.07;3.73;;;;;;;;;;5053526;28;20443;-77
2023/03/25 03:25:35;;;;;;;6.13;3.53;;;;;;;;;;5048649;28;20198;-78
2023/03/25 03:28:04;;;;;;;4.47;3.20;;;;;;;;;;5048316;28;20214;-78
2023/03/25 03:30:33;;;;;;;7.13;4.13;;;;;;;;;;5046888;28;20207;-78
2023/03/25 03:33:04;;;;;;;7.83;3.67;;;;;;;;;;5052084;28;20219;-78
2023/03/25 03:35:32;;;;;;;7.10;3.30;;;;;;;;;;5052420;28;20608;-78
2023/03/25 03:38:00;;;;;;;3.90;3.20;;;;;;;;;;5052100;28;20214;-78
2023/03/25 03:40:27;;;;;;;4.53;3.50;;;;;;;;;;5032129;28;20478;-78
2023/03/25 03:42:57;;;;;;;5.07;3.77;;;;;;;;;;5047705;28;20473;-78
2023/03/25 03:45:25;;;;;;;5.30;3.97;;;;;;;;;;5054406;28;20187;-78
2023/03/25 03:47:53;;;;;;;6.33;3.73;;;;;;;;;;5054783;28;20217;-78
2023/03/25 03:50:20;;;;;;;8.80;4.17;;;;;;;;;;5051648;28;20639;-78
2023/03/25 03:52:49;;;;;;;6.30;3.67;;;;;;;;;;5052274;28;20313;-78
2023/03/25 03:55:17;;;;;;;6.20;3.67;;;;;;;;;;5054359;28;20215;-78
2023/03/25 03:57:47;;;;;;;5.43;3.40;;;;;;;;;;5055122;28;20363;-78
2023/03/25 04:00:17;;;;;;;9.57;4.10;;;;;;;;;;5059596;28;20221;-78
2023/03/25 04:02:46;;;;;;;7.27;3.93;;;;;;;;;;5036604;28;20218;-78
2023/03/25 04:05:14;;;;;;;6.70;3.87;;;;;;;;;;5057078;28;20191;-78
2023/03/25 04:07:43;;;;;;;5.00;3.23;;;;;;;;;;5057205;28;20639;-78
2023/03/25 04:10:13;;;;;;;6.60;3.40;;;;;;;;;;5056951;28;20244;-78
2023/03/25 04:12:42;;;;;;;5.03;3.80;;;;;;;;;;5032888;28;20355;-78
2023/03/25 04:15:08;;;;;;;7.17;3.17;;;;;;;;;;5051531;28;20473;-78
2023/03/25 04:17:36;;;;;;;5.30;3.63;;;;;;;;;;5047699;28;20641;-78
2023/03/25 04:20:05;;;;;;;6.40;3.50;;;;;;;;;;5052172;28;20195;-78
2023/03/25 04:22:32;;;;;;;6.53;3.97;;;;;;;;;;5055079;28;20237;-78
2023/03/25 04:24:59;;;;;;;7.37;4.10;;;;;;;;;;5033424;28;20586;-78
2023/03/25 04:27:28;;;;;;;7.30;3.50;;;;;;;;;;5054725;28;20199;-78
2023/03/25 04:29:56;;;;;;;3.60;3.30;;;;;;;;;;5052284;28;20689;-78
2023/03/25 04:32:22;;;;;;;5.60;3.60;;;;;;;;;;5052070;28;20594;-78
2023/03/25 04:34:50;;;;;;;8.87;3.93;;;;;;;;;;5051464;28;20203;-78
2023/03/25 04:37:16;;;;;;;6.07;3.80;;;;;;;;;;5054386;28;20203;-78
2023/03/25 04:39:42;;;;;;;5.23;3.43;;;;;;;;;;5053123;28;20202;-78
2023/03/25 04:42:12;;;;;;;5.53;3.67;;;;;;;;;;5053016;28;20302;-78
2023/03/25 04:44:38;;;;;;;5.13;3.23;;;;;;;;;;5038223;28;20196;-78
2023/03/25 04:47:05;;;;;;;8.70;3.43;;;;;;;;;;5054444;28;20209;-78
2023/03/25 04:49:31;;;;;;;4.83;3.50;;;;;;;;;;5053491;28;20209;-78
2023/03/25 04:52:01;;;;;;;11.13;3.73;;;;;;;;;;5048142;28;20852;-78
2023/03/25 04:54:27;;;;;;;6.00;3.80;;;;;;;;;;5053613;28;20322;-78
2023/03/25 04:56:53;;;;;;;7.47;3.70;;;;;;;;;;5047580;28;20214;-78
2023/03/25 04:59:20;;;;;;;4.60;3.70;;;;;;;;;;5049041;28;20192;-78
2023/03/25 05:01:47;;;;;;;4.27;2.90;;;;;;;;;;5055045;28;20225;-78
2023/03/25 05:04:16;;;;;;;4.37;3.47;;;;;;;;;;5055745;28;20250;-78
2023/03/25 05:06:42;;;;;;;4.43;3.43;;;;;;;;;;5049134;28;20566;-78
2023/03/25 05:09:11;;;;;;;6.53;3.67;;;;;;;;;;5055637;28;20529;-78
2023/03/25 05:11:40;;;;;;;7.43;3.70;;;;;;;;;;5049713;28;20244;-78
2023/03/25 05:14:07;;;;;;;3.90;3.50;;;;;;;;;;5051894;28;20213;-78
2023/03/25 05:16:34;;;;;;;4.77;2.97;;;;;;;;;;5056032;28;20273;-78
2023/03/25 05:19:02;;;;;;;5.40;3.37;;;;;;;;;;5055962;28;20211;-78
2023/03/25 05:21:28;;;;;;;6.43;3.40;;;;;;;;;;5038412;28;20747;-78
2023/03/25 05:23:57;;;;;;;5.67;3.17;;;;;;;;;;5054751;28;20215;-78
2023/03/25 05:26:24;;;;;;;5.73;3.47;;;;;;;;;;5034675;28;20256;-78
2023/03/25 05:28:51;;;;;;;8.67;3.20;;;;;;;;;;5046563;28;20324;-78
2023/03/25 05:31:17;;;;;;;5.33;3.20;;;;;;;;;;5054805;28;20227;-78
2023/03/25 05:33:43;;;;;;;5.87;3.20;;;;;;;;;;5056163;28;20227;-78
2023/03/25 05:36:10;;;;;;;7.00;2.87;;;;;;;;;;5055805;28;20282;-78
2023/03/25 05:38:36;;;;;;;3.73;2.40;;;;;;;;;;5052904;28;20302;-78
2023/03/25 05:41:03;;;;;;;4.00;2.83;;;;;;;;;;5057698;28;20290;-78
2023/03/25 05:43:34;;;;;;;3.70;2.73;;;;;;;;;;5050011;28;20223;-78
2023/03/25 05:46:00;;;;;;;3.87;2.67;;;;;;;;;;5049843;28;20218;-78
2023/03/25 05:48:31;;;;;;;3.57;2.63;;;;;;;;;;5053161;28;20248;-78
2023/03/25 05:50:57;;;;;;;4.00;2.60;;;;;;;;;;5050370;28;20198;-78
2023/03/25 05:53:25;;;;;;;3.23;2.40;;;;;;;;;;5052077;28;20327;-78
2023/03/25 05:55:51;;;;;;;5.03;2.73;;;;;;;;;;5048091;28;20215;-78
2023/03/25 05:58:18;;;;;;;3.30;2.67;;;;;;;;;;5053957;28;20207;-78
2023/03/25 06:00:47;;;;;;;4.70;2.60;;;;;;;;;;5055117;28;20211;-78
2023/03/25 06:03:14;;;;;;;7.33;2.83;;;;;;;;;;5050759;28;20322;-78
2023/03/25 06:05:41;;;;;;;3.83;2.33;;;;;;;;;;5053418;28;20198;-78
2023/03/25 06:08:07;;;;;;;6.67;2.47;;;;;;;;;;5040474;28;20207;-78
2023/03/25 06:10:33;;;;;;;2.67;2.33;;;;;;;;;;5057894;28;20203;-78
2023/03/25 06:12:59;;;;;;;6.13;2.23;;;;;;;;;;5065818;28;20227;-78
2023/03/25 06:15:32;;;;;;;4.73;2.53;;;;;;;;;;5062430;28;20204;-78
2023/03/25 06:18:00;;;;;;;5.43;2.47;;;;;;;;;;5045258;28;20218;-78
2023/03/25 06:20:26;;;;;;;3.23;2.40;;;;;;;;;;5047297;28;20202;-78
2023/03/25 06:22:53;;;;;;;3.10;2.20;;;;;;;;;;5059145;28;20745;-78
2023/03/25 06:25:20;;;;;;;3.23;2.10;;;;;;;;;;5044492;28;20208;-78
2023/03/25 06:27:47;;;;;;;6.23;2.03;;;;;;;;;;5062965;28;20282;-78
2023/03/25 06:30:14;;;;;;;3.50;1.70;;;;;;;;;;5064063;28;20202;-78
2023/03/25 06:32:41;;;;;;;2.17;1.80;;;;;;;;;;5064767;28;20565;-78
2023/03/25 06:35:09;;;;;;;2.90;1.80;;;;;;;;;;5065775;28;20205;-78
2023/03/25 06:37:36;;;;;;;3.07;1.80;;;;;;;;;;5062982;28;20601;-78
2023/03/25 06:40:08;;;;;;;2.70;1.60;;;;;;;;;;5041116;28;20209;-78
2023/03/25 06:42:35;;;;;;;1.53;1.40;;;;;;;;;;5046127;28;20230;-78
2023/03/25 06:45:27;;;;;;;1.50;1.30;;;;;;;;;;5064193;28;20207;-77
2023/03/25 06:48:05;;;;;;;2.43;1.80;;;;;;;;;;5059441;28;20732;-77
2023/03/25 06:50:32;;;;;;;2.70;1.27;;;;;;;;;;5062152;28;20221;-77
2023/03/25 06:52:59;;;;;;;2.43;1.27;;;;;;;;;;5058669;28;20286;-77
2023/03/25 06:55:25;;;;;;;2.63;1.33;;;;;;;;;;5060606;28;20210;-77
2023/03/25 06:57:54;;;;;;;2.30;1.40;;;;;;;;;;5063758;28;20206;-77
2023/03/25 07:00:22;;;;;;;1.17;1.10;;;;;;;;;;5066285;28;20199;-77
2023/03/25 07:02:49;;;;;;;3.33;1.20;;;;;;;;;;5062216;28;20732;-77
2023/03/25 07:05:15;;;;;;;1.73;1.30;;;;;;;;;;5061929;28;20218;-77
2023/03/25 07:07:43;;;;;;;1.77;1.30;;;;;;;;;;5065948;28;20278;-77
2023/03/25 07:10:11;;;;;;;2.13;1.40;;;;;;;;;;5060390;28;20646;-78
2023/03/25 07:12:37;;;;;;;1.90;1.10;;;;;;;;;;5065264;28;20591;-77
2023/03/25 07:15:04;;;;;;;3.20;1.40;;;;;;;;;;5061602;28;20202;-77
2023/03/25 07:17:34;;;;;;;1.07;0.90;;;;;;;;;;5058792;28;20218;-78
2023/03/25 07:20:01;;;;;;;1.30;1.17;;;;;;;;;;5061762;28;20207;-77
2023/03/25 07:22:27;;;;;;;1.10;1.00;;;;;;;;;;5059898;28;20223;-77
2023/03/25 07:24:54;;;;;;;2.93;1.37;;;;;;;;;;5064060;28;20201;-77
2023/03/25 07:27:21;;;;;;;2.03;0.97;;;;;;;;;;5060788;28;20580;-77
2023/03/25 07:29:56;;;;;;;1.17;0.83;;;;;;;;;;5044335;28;20202;-77
2023/03/25 07:32:23;;;;;;;1.90;1.30;;;;;;;;;;5062641;28;20278;-77
2023/03/25 07:34:49;;;;;;;1.30;1.20;;;;;;;;;;5068266;28;20197;-77
2023/03/25 07:37:15;;;;;;;0.77;0.70;;;;;;;;;;5060561;28;20201;-77
2023/03/25 07:39:41;;;;;;;2.77;0.90;;;;;;;;;;5066885;28;20220;-77
2023/03/25 07:42:09;;;;;;;1.70;0.70;;;;;;;;;;5061375;28;20235;-77
2023/03/25 07:45:14;;;;;;;2.03;0.90;;;;;;;;;;5010187;28;20203;-77
2023/03/25 07:47:48;;;;;;;0.80;0.77;;;;;;;;;;5003835;28;20572;-78
2023/03/25 07:50:14;;;;;;;2.43;0.70;;;;;;;;;;5022349;28;20205;-77
2023/03/25 07:52:41;;;;;;;2.10;0.53;;;;;;;;;;5042915;28;20227;-77
2023/03/25 07:55:07;;;;;;;1.03;0.67;;;;;;;;;;5068437;28;20426;-77
2023/03/25 07:57:35;;;;;;;1.70;0.60;;;;;;;;;;5063398;28;20203;-78
2023/03/25 08:00:03;;;;;;;1.30;0.60;;;;;;;;;;5046495;28;20452;-78
2023/03/25 08:02:38;;;;;;;1.57;0.67;;;;;;;;;;5060629;28;20306;-78
2023/03/25 08:05:05;;;;;;;0.97;0.70;;;;;;;;;;5065341;28;20260;-78
2023/03/25 08:07:31;;;;;;;0.60;0.60;;;;;;;;;;5063971;28;20205;-78
2023/03/25 08:09:57;;;;;;;0.83;0.67;;;;;;;;;;5067742;28;20199;-78
2023/03/25 08:12:24;;;;;;;1.80;0.77;;;;;;;;;;5058597;28;20216;-78
2023/03/25 08:14:51;;;;;;;0.43;0.43;;;;;;;;;;5059050;28;20203;-78
2023/03/25 08:17:18;;;;;;;1.60;0.57;;;;;;;;;;5059276;28;20214;-77
2023/03/25 08:19:44;;;;;;;0.73;0.60;;;;;;;;;;5060582;28;20202;-77
2023/03/25 08:22:11;;;;;;;2.53;0.50;;;;;;;;;;5062942;28;20303;-77
2023/03/25 08:24:37;;;;;;;0.70;0.60;;;;;;;;;;5061308;28;20214;-78
2023/03/25 08:27:03;;;;;;;1.00;0.73;;;;;;;;;;5063269;28;20241;-77
2023/03/25 08:29:33;;;;;;;2.00;0.90;;;;;;;;;;5062975;28;20583;-77
2023/03/25 08:32:00;;;;;;;0.60;0.60;;;;;;;;;;5062423;28;20612;-77
2023/03/25 08:34:27;;;;;;;1.43;0.70;;;;;;;;;;5063197;28;20213;-77
2023/03/25 08:36:53;;;;;;;0.57;0.57;;;;;;;;;;5062043;28;20197;-77
2023/03/25 08:39:20;;;;;;;2.27;0.73;;;;;;;;;;5056970;28;20276;-78
2023/03/25 08:41:47;;;;;;;3.13;0.50;;;;;;;;;;5065521;28;20222;-78
2023/03/25 08:44:13;;;;;;;0.60;0.60;;;;;;;;;;5066529;28;20208;-77
2023/03/25 08:46:39;;;;;;;0.90;0.60;;;;;;;;;;5064300;28;20202;-78
2023/03/25 08:49:07;;;;;;;0.60;0.60;;;;;;;;;;5060432;28;20197;-78
2023/03/25 08:51:35;;;;;;;1.23;0.50;;;;;;;;;;5044022;28;20200;-78
2023/03/25 08:54:02;;;;;;;1.03;0.40;;;;;;;;;;5068187;28;20586;-78
2023/03/25 08:56:28;;;;;;;0.87;0.70;;;;;;;;;;5061272;28;20244;-78
2023/03/25 08:58:54;;;;;;;1.40;0.40;;;;;;;;;;5064008;28;20200;-78
2023/03/25 09:01:23;;;;;;;0.60;0.60;;;;;;;;;;5060725;28;20575;-78
2023/03/25 09:03:49;;;;;;;2.73;0.73;;;;;;;;;;5050661;28;20585;-77
2023/03/25 09:06:16;;;;;;;0.53;0.50;;;;;;;;;;5063034;28;20209;-77
2023/03/25 09:08:43;;;;;;;1.70;0.80;;;;;;;;;;5056076;28;20771;-77
2023/03/25 09:11:10;;;;;;;1.80;0.60;;;;;;;;;;5060959;28;20213;-77
2023/03/25 09:13:36;;;;;;;0.87;0.50;;;;;;;;;;5060407;28;20706;-78
2023/03/25 09:16:03;;;;;;;1.67;0.90;;;;;;;;;;5075696;28;20202;-77
2023/03/25 09:18:30;;;;;;;1.30;0.57;;;;;;;;;;5044914;28;20221;-77
2023/03/25 09:20:58;;;;;;;1.17;0.80;;;;;;;;;;5061126;28;20214;-78
2023/03/25 09:23:25;;;;;;;3.60;0.80;;;;;;;;;;5061462;28;20301;-78
2023/03/25 09:25:52;;;;;;;1.27;0.70;;;;;;;;;;5059663;28;20217;-78
2023/03/25 09:28:18;;;;;;;0.97;0.50;;;;;;;;;;5067132;28;20205;-78
2023/03/25 09:30:44;;;;;;;2.07;1.10;;;;;;;;;;5064456;28;20351;-78
2023/03/25 09:33:10;;;;;;;5.13;1.13;;;;;;;;;;5060477;28;20205;-77
2023/03/25 09:35:39;;;;;;;1.83;1.00;;;;;;;;;;5060054;28;20213;-77
2023/03/25 09:38:06;;;;;;;2.40;0.67;;;;;;;;;;5058687;28;20252;-77
2023/03/25 09:40:34;;;;;;;1.03;0.70;;;;;;;;;;5069265;28;20195;-77
2023/03/25 09:43:05;;;;;;;0.60;0.60;;;;;;;;;;5064635;28;20245;-77
2023/03/25 09:45:34;;;;;;;0.70;0.67;;;;;;;;;;5056899;28;20234;-77
2023/03/25 09:48:02;;;;;;;2.33;0.70;;;;;;;;;;5043008;28;20858;-77
2023/03/25 09:50:30;;;;;;;1.13;0.50;;;;;;;;;;5062457;28;20195;-77
2023/03/25 09:52:59;;;;;;;0.97;0.40;;;;;;;;;;5058971;28;20242;-77
2023/03/25 09:55:27;;;;;;;0.57;0.50;;;;;;;;;;5063081;28;20199;-77
2023/03/25 09:57:57;;;;;;;1.90;0.60;;;;;;;;;;5062190;28;20247;-78
2023/03/25 10:00:24;;;;;;;0.50;0.40;;;;;;;;;;5064519;28;20198;-77
2023/03/25 10:02:54;;;;;;;1.37;0.50;;;;;;;;;;5065054;28;20497;-77
2023/03/25 10:05:25;;;;;;;0.87;0.50;;;;;;;;;;5056972;28;20207;-77
2023/03/25 10:07:57;;;;;;;0.83;0.50;;;;;;;;;;5037122;28;20206;-77
2023/03/25 10:10:26;;;;;;;0.70;0.60;;;;;;;;;;5052140;28;20214;-77
2023/03/25 10:12:57;;;;;;;0.47;0.47;;;;;;;;;;5049881;28;20213;-77
2023/03/25 10:15:30;;;;;;;2.70;0.67;;;;;;;;;;5053359;28;20550;-77
2023/03/25 10:18:04;;;;;;;0.90;0.60;;;;;;;;;;5048010;28;20744;-77
2023/03/25 10:20:38;;;;;;;1.23;0.63;;;;;;;;;;5055211;28;20293;-77
2023/03/25 10:23:11;;;;;;;1.00;0.90;;;;;;;;;;5050129;28;20860;-77
2023/03/25 10:25:40;;;;;;;1.87;0.70;;;;;;;;;;5037986;28;20214;-77
2023/03/25 10:28:10;;;;;;;1.03;0.60;;;;;;;;;;5053360;28;20201;-77
2023/03/25 10:30:40;;;;;;;0.70;0.70;;;;;;;;;;5048878;28;20213;-77
2023/03/25 10:33:12;;;;;;;0.40;0.40;;;;;;;;;;5050263;28;20213;-77
2023/03/25 10:35:40;;;;;;;0.70;0.60;;;;;;;;;;5056405;28;22836;-77
2023/03/25 10:38:10;;;;;;;0.30;0.30;;;;;;;;;;5051868;28;20208;-77
2023/03/25 10:40:39;;;;;;;2.43;0.47;;;;;;;;;;5037851;28;20482;-77
2023/03/25 10:43:12;;;;;;;1.67;0.70;;;;;;;;;;5049709;28;20230;-77
2023/03/25 10:45:40;;;;;;;0.70;0.40;;;;;;;;;;5052850;28;20206;-78
2023/03/25 10:48:10;;;;;;;1.53;0.40;;;;;;;;;;5044879;28;20222;-77
2023/03/25 10:50:37;;;;;;;0.60;0.50;;;;;;;;;;5048255;28;20208;-77
2023/03/25 10:53:03;;;;;;;1.50;0.57;;;;;;;;;;5051408;28;20237;-77
2023/03/25 10:55:33;;;;;;;0.40;0.40;;;;;;;;;;5053405;28;20207;-78
2023/03/25 10:58:00;;;;;;;2.27;0.77;;;;;;;;;;5052439;28;20198;-77
2023/03/25 11:00:29;;;;;;;1.53;0.60;;;;;;;;;;5055345;28;20259;-78
2023/03/25 11:02:56;;;;;;;1.23;0.40;;;;;;;;;;5042912;28;20431;-78
2023/03/25 11:05:24;;;;;;;1.70;0.33;;;;;;;;;;5051353;28;20291;-78
2023/03/25 11:07:51;;;;;;;0.53;0.53;;;;;;;;;;5049145;28;20354;-77
2023/03/25 11:10:19;;;;;;;0.83;0.30;;;;;;;;;;5046980;28;20292;-77
2023/03/25 11:12:47;;;;;;;2.20;0.40;;;;;;;;;;5048468;28;20230;-77
2023/03/25 11:15:14;;;;;;;0.70;0.50;;;;;;;;;;5049815;28;20691;-79
2023/03/25 11:17:40;;;;;;;0.30;0.30;;;;;;;;;;5052201;28;20683;-78
2023/03/25 11:20:16;;;;;;;0.83;0.40;;;;;;;;;;5048416;28;20960;-78
2023/03/25 11:22:45;;;;;;;0.50;0.50;;;;;;;;;;5047206;28;20217;-77
2023/03/25 11:25:16;;;;;;;0.67;0.40;;;;;;;;;;5052865;28;20211;-77
2023/03/25 11:27:45;;;;;;;0.40;0.40;;;;;;;;;;5033297;28;20222;-78
2023/03/25 11:30:15;;;;;;;0.50;0.50;;;;;;;;;;5047565;28;20324;-78
2023/03/25 11:32:41;;;;;;;0.60;0.40;;;;;;;;;;5028322;28;20253;-78
2023/03/25 11:35:15;;;;;;;1.13;0.40;;;;;;;;;;5053714;28;20206;-78
2023/03/25 11:37:43;;;;;;;1.70;0.50;;;;;;;;;;5048920;28;20957;-78
2023/03/25 11:40:14;;;;;;;0.57;0.50;;;;;;;;;;5051017;28;20198;-78
2023/03/25 11:42:41;;;;;;;1.60;0.40;;;;;;;;;;5056385;28;20659;-78
2023/03/25 11:45:18;;;;;;;1.00;0.80;;;;;;;;;;5049895;28;20204;-77
2023/03/25 11:47:44;;;;;;;0.60;0.40;;;;;;;;;;5055742;28;20208;-78
2023/03/25 11:50:19;;;;;;;0.57;0.43;;;;;;;;;;5056038;28;20224;-78
2023/03/25 11:52:46;;;;;;;0.37;0.30;;;;;;;;;;5027971;28;20284;-77
2023/03/25 11:55:16;;;;;;;0.40;0.40;;;;;;;;;;5054123;28;20197;-77
2023/03/25 11:57:42;;;;;;;1.20;0.70;;;;;;;;;;5051368;28;20210;-78
2023/03/25 12:00:19;;;;;;;0.70;0.60;;;;;;;;;;5056547;28;20209;-77
2023/03/25 12:02:45;;;;;;;3.57;0.50;;;;;;;;;;5057914;28;20214;-77
2023/03/25 12:05:12;;;;;;;2.57;0.60;;;;;;;;;;5056846;28;20203;-78
2023/03/25 12:07:45;;;;;;;1.37;0.50;;;;;;;;;;5055351;28;20405;-78
2023/03/25 12:10:16;;;;;;;0.40;0.40;;;;;;;;;;5054463;28;20221;-77
2023/03/25 12:12:45;;;;;;;1.33;0.40;;;;;;;;;;5040187;28;20592;-77
2023/03/25 12:15:18;;;;;;;0.30;0.30;;;;;;;;;;5050829;28;20208;-77
2023/03/25 12:17:51;;;;;;;0.63;0.13;;;;;;;;;;5047189;28;20206;-78
2023/03/25 12:20:22;;;;;;;0.27;0.27;;;;;;;;;;5039310;28;20521;-77
2023/03/25 12:22:52;;;;;;;0.30;0.30;;;;;;;;;;5054034;28;20226;-77
2023/03/25 12:25:25;;;;;;;0.37;0.37;;;;;;;;;;5057183;28;20828;-77
2023/03/25 12:27:57;;;;;;;0.37;0.37;;;;;;;;;;5053245;28;20218;-77
2023/03/25 12:30:27;;;;;;;0.63;0.50;;;;;;;;;;5054871;28;20196;-77
2023/03/25 12:33:01;;;;;;;0.87;0.70;;;;;;;;;;5060426;28;20722;-77
2023/03/25 12:35:30;;;;;;;0.60;0.60;;;;;;;;;;5048395;28;20208;-77
2023/03/25 12:38:22;;;;;;;0.70;0.70;;;;;;;;;;5037295;28;20214;-77
2023/03/25 12:40:59;;;;;;;0.60;0.60;;;;;;;;;;5052903;28;20213;-77
2023/03/25 12:43:29;;;;;;;0.97;0.70;;;;;;;;;;5060140;28;20834;-77
2023/03/25 12:46:01;;;;;;;0.80;0.50;;;;;;;;;;5055021;28;20281;-77
2023/03/25 12:48:44;;;;;;;0.50;0.50;;;;;;;;;;5036672;28;20220;-77
2023/03/25 12:51:15;;;;;;;1.23;0.70;;;;;;;;;;5038203;28;20250;-77
2023/03/25 12:53:48;;;;;;;0.67;0.67;;;;;;;;;;5057965;28;20226;-77
2023/03/25 12:56:23;;;;;;;0.50;0.50;;;;;;;;;;5057383;28;20569;-77
2023/03/25 12:59:01;;;;;;;1.80;0.60;;;;;;;;;;5051147;28;20205;-78
2023/03/25 13:01:33;;;;;;;2.60;0.73;;;;;;;;;;5056000;28;20199;-77
2023/03/25 13:04:21;;;;;;;0.63;0.60;;;;;;;;;;5057465;28;20249;-77
2023/03/25 13:06:52;;;;;;;2.10;0.93;;;;;;;;;;5044041;28;20224;-77
2023/03/25 13:09:21;;;;;;;1.07;0.97;;;;;;;;;;5058607;28;20202;-77
2023/03/25 13:11:48;;;;;;;2.57;0.80;;;;;;;;;;5038823;28;20264;-77
2023/03/25 13:14:18;;;;;;;0.67;0.60;;;;;;;;;;5057529;28;20237;-78
2023/03/25 13:16:44;;;;;;;0.53;0.53;;;;;;;;;;5055321;28;20205;-78
2023/03/25 13:19:13;;;;;;;1.80;0.67;;;;;;;;;;5056932;28;20295;-77
2023/03/25 13:21:40;;;;;;;1.37;0.77;;;;;;;;;;5053146;28;20206;-78
2023/03/25 13:24:10;;;;;;;1.33;0.70;;;;;;;;;;5056241;28;21003;-77
2023/03/25 13:26:39;;;;;;;0.70;0.67;;;;;;;;;;5036778;28;20283;-77
2023/03/25 13:29:06;;;;;;;1.83;0.70;;;;;;;;;;5060245;28;20209;-77
2023/03/25 13:31:35;;;;;;;0.40;0.40;;;;;;;;;;5054215;28;20209;-78
2023/03/25 13:34:05;;;;;;;0.97;0.60;;;;;;;;;;5051401;28;21147;-78
2023/03/25 13:36:34;;;;;;;1.47;0.60;;;;;;;;;;5053791;28;20688;-78
2023/03/25 13:39:03;;;;;;;2.07;0.57;;;;;;;;;;5055571;28;20579;-77
2023/03/25 13:41:32;;;;;;;0.93;0.53;;;;;;;;;;5061297;28;20665;-78
2023/03/25 13:44:04;;;;;;;0.57;0.50;;;;;;;;;;5057728;28;20279;-78
2023/03/25 13:46:33;;;;;;;0.40;0.40;;;;;;;;;;5062533;28;20194;-77
2023/03/25 13:49:01;;;;;;;0.60;0.43;;;;;;;;;;5048183;28;20209;-78
2023/03/25 13:51:28;;;;;;;1.57;0.60;;;;;;;;;;5060446;28;20214;-78
2023/03/25 13:53:56;;;;;;;1.77;0.60;;;;;;;;;;5055936;28;20233;-78
2023/03/25 13:56:33;;;;;;;0.43;0.43;;;;;;;;;;5047180;28;20226;-78
2023/03/25 13:59:16;;;;;;;3.23;0.60;;;;;;;;;;5052972;28;20210;-78
2023/03/25 14:01:52;;;;;;;0.70;0.53;;;;;;;;;;5053056;28;20672;-77
2023/03/25 14:04:29;;;;;;;1.33;0.47;;;;;;;;;;5053065;28;20242;-78
2023/03/25 14:07:05;;;;;;;0.40;0.40;;;;;;;;;;5055819;28;20309;-78
2023/03/25 14:09:48;;;;;;;1.20;0.40;;;;;;;;;;5053702;28;20786;-78
2023/03/25 14:12:15;;;;;;;0.40;0.40;;;;;;;;;;5052629;28;20749;-78
2023/03/25 14:14:45;;;;;;;0.43;0.40;;;;;;;;;;5053513;28;21740;-78
2023/03/25 14:17:12;;;;;;;0.63;0.50;;;;;;;;;;5034672;28;20223;-78
2023/03/25 14:19:40;;;;;;;2.07;0.50;;;;;;;;;;5056325;28;20210;-78
2023/03/25 14:22:08;;;;;;;1.23;0.47;;;;;;;;;;5056546;28;20300;-78
2023/03/25 14:24:35;;;;;;;2.07;0.60;;;;;;;;;;5051773;28;20222;-78
2023/03/25 14:27:04;;;;;;;0.80;0.50;;;;;;;;;;5033206;28;20675;-78
2023/03/25 14:29:34;;;;;;;0.90;0.47;;;;;;;;;;5053842;28;20214;-78
2023/03/25 14:32:04;;;;;;;0.57;0.40;;;;;;;;;;5051284;28;20569;-78
2023/03/25 14:34:31;;;;;;;0.63;0.40;;;;;;;;;;5051132;28;20196;-78
2023/03/25 14:37:16;;;;;;;0.73;0.50;;;;;;;;;;5048546;28;20211;-78
2023/03/25 14:39:43;;;;;;;1.60;0.47;;;;;;;;;;5051749;28;20194;-78
2023/03/25 14:42:12;;;;;;;0.40;0.40;;;;;;;;;;5036773;28;20998;-77
2023/03/25 14:44:40;;;;;;;0.53;0.40;;;;;;;;;;5054394;28;20213;-78
2023/03/25 14:47:27;;;;;;;1.67;0.60;;;;;;;;;;5058771;28;20213;-78
2023/03/25 14:49:59;;;;;;;1.47;0.50;;;;;;;;;;5050807;28;20232;-78
2023/03/25 14:52:28;;;;;;;0.67;0.53;;;;;;;;;;5050482;28;20285;-78
2023/03/25 14:54:55;;;;;;;1.70;0.40;;;;;;;;;;5038436;28;20185;-78
2023/03/25 14:57:22;;;;;;;1.83;0.30;;;;;;;;;;5051984;28;20198;-78